Hopewell, VA (23860)

8:22 PM EDT on July 29, 2015 (GMT -0400)
Enon, VA | | Change Station
CLOSE
Current Station
Personal Weather Station
Location: Chester, VA
Elevation: 89 ft
Nearby Weather Stations

Elev 89 ft 37.33 °N, 77.34 °W | Updated 4 minutes ago

Clear
Clear
78.5 °F
Feels Like 81 °F
N
0.0
Wind Variable Wind from West

Today
High -- | Low -- °F
--% Chance of Precip.
Yesterday
High -- | Low -- °F
Precip. -- in
6:11 AM 8:19 PM
Waxing Gibbous, 97% visible
Pressure 29.97 in
Visibility 7.0 miles
Clouds Clear
Heat Index 81 °F
Dew Point 73 °F
Humidity 84%
Rainfall 0.48 in
Snow Depth Not available.
UV 0 out of 12
Pollen 4.50 out of 12
Air Quality Not available.
Flu Activity Not available.
METAR KPTB 292355Z AUTO 00000KT 7SM CLR 28/28 A2997 RMK AO2 T02760276 10298 20276

More Conditions Fewer Conditions

Pressure 29.97 in
Visibility 7.0 miles
Clouds Clear
Heat Index 81 °F
Dew Point 73 °F
Humidity 84%
Rainfall 0.48 in
Snow Depth Not available.
UV 0 out of 12
Pollen 4.50 out of 12
Air Quality Not available.
Flu Activity Not available.
METAR KPTB 292355Z AUTO 00000KT 7SM CLR 28/28 A2997 RMK AO2 T02760276 10298 20276

More Conditions Fewer Conditions

10-Day Weather Forecast

×

Almanac

Astronomy

Jul. 29, 2015 Rise Set
Actual Time
Civil Twilight
Nautical Twilight
Astronomical Twilight
Moon
Length of Visible Light
Length of Day
Tomorrow will be .
, % of the Moon is Illuminated

Today's Extremes

State Highs State Lows

Community

WunderPhotos

Upload Photos

1,842,221 photos uploaded!

WunderBlogs® & News

Nearby

Air Quality

  Air Quality AQ Index Pollutant
Not available.

Snow Depth

Station Depth Elevation

Earthquake Activity

City Distance Mag. Time & Date
Minimum magnitude displayed is 2.5.

Coastal Water Temperatures

Place Temperature

Stations

Nearby Weather Stations

Station Location Temp. Windchill Dew Point Humidity Wind Precip. Elev Updated Type